sensor_id;sensor_type;location;lat;lon;timestamp;P1;durP1;ratioP1;P2;durP2;ratioP2
72413;SDS011;60995;52.154;4.498;2023-04-28T00:00:57;14.13;;;5.97;;
72413;SDS011;60995;52.154;4.498;2023-04-28T00:03:13;11.25;;;6.03;;
72413;SDS011;60995;52.154;4.498;2023-04-28T00:05:30;10.95;;;5.40;;
72413;SDS011;60995;52.154;4.498;2023-04-28T00:07:46;13.25;;;5.10;;
72413;SDS011;60995;52.154;4.498;2023-04-28T00:10:03;12.75;;;5.35;;
72413;SDS011;60995;52.154;4.498;2023-04-28T00:12:19;11.10;;;5.05;;
72413;SDS011;60995;52.154;4.498;2023-04-28T00:14:35;14.40;;;5.78;;
72413;SDS011;60995;52.154;4.498;2023-04-28T00:16:52;11.27;;;5.03;;
72413;SDS011;60995;52.154;4.498;2023-04-28T00:19:11;11.90;;;5.70;;
72413;SDS011;60995;52.154;4.498;2023-04-28T00:21:27;11.38;;;5.10;;
72413;SDS011;60995;52.154;4.498;2023-04-28T00:23:44;12.38;;;5.65;;
72413;SDS011;60995;52.154;4.498;2023-04-28T00:26:00;10.80;;;5.55;;
72413;SDS011;60995;52.154;4.498;2023-04-28T00:28:16;13.05;;;5.82;;
72413;SDS011;60995;52.154;4.498;2023-04-28T00:30:33;10.07;;;5.45;;
72413;SDS011;60995;52.154;4.498;2023-04-28T00:32:49;14.15;;;6.13;;
72413;SDS011;60995;52.154;4.498;2023-04-28T00:35:06;14.63;;;5.95;;
72413;SDS011;60995;52.154;4.498;2023-04-28T00:37:23;14.55;;;7.70;;
72413;SDS011;60995;52.154;4.498;2023-04-28T00:39:39;11.00;;;5.63;;
72413;SDS011;60995;52.154;4.498;2023-04-28T00:41:56;12.32;;;5.95;;
72413;SDS011;60995;52.154;4.498;2023-04-28T00:44:12;10.55;;;6.25;;
72413;SDS011;60995;52.154;4.498;2023-04-28T00:46:29;13.25;;;6.50;;
72413;SDS011;60995;52.154;4.498;2023-04-28T00:48:48;13.70;;;6.43;;
72413;SDS011;60995;52.154;4.498;2023-04-28T00:51:05;12.32;;;6.40;;
72413;SDS011;60995;52.154;4.498;2023-04-28T00:53:22;12.73;;;6.75;;
72413;SDS011;60995;52.154;4.498;2023-04-28T00:55:39;12.07;;;6.38;;
72413;SDS011;60995;52.154;4.498;2023-04-28T00:57:55;10.70;;;6.53;;
72413;SDS011;60995;52.154;4.498;2023-04-28T01:00:12;14.05;;;6.40;;
72413;SDS011;60995;52.154;4.498;2023-04-28T01:02:34;12.00;;;6.43;;
72413;SDS011;60995;52.154;4.498;2023-04-28T01:04:51;12.32;;;6.30;;
72413;SDS011;60995;52.154;4.498;2023-04-28T01:07:09;14.45;;;6.40;;
72413;SDS011;60995;52.154;4.498;2023-04-28T01:09:25;12.98;;;6.72;;
72413;SDS011;60995;52.154;4.498;2023-04-28T01:11:41;11.82;;;6.50;;
72413;SDS011;60995;52.154;4.498;2023-04-28T01:13:58;12.60;;;6.32;;
72413;SDS011;60995;52.154;4.498;2023-04-28T01:16:14;11.27;;;6.20;;
72413;SDS011;60995;52.154;4.498;2023-04-28T01:18:31;14.20;;;6.50;;
72413;SDS011;60995;52.154;4.498;2023-04-28T01:20:47;12.10;;;6.07;;
72413;SDS011;60995;52.154;4.498;2023-04-28T01:23:04;12.43;;;6.70;;
72413;SDS011;60995;52.154;4.498;2023-04-28T01:25:20;11.30;;;6.40;;
72413;SDS011;60995;52.154;4.498;2023-04-28T01:27:36;11.38;;;6.38;;
72413;SDS011;60995;52.154;4.498;2023-04-28T01:29:53;15.18;;;7.00;;
72413;SDS011;60995;52.154;4.498;2023-04-28T01:32:09;15.10;;;6.47;;
72413;SDS011;60995;52.154;4.498;2023-04-28T01:34:25;13.52;;;5.57;;
72413;SDS011;60995;52.154;4.498;2023-04-28T01:36:42;13.30;;;6.28;;
72413;SDS011;60995;52.154;4.498;2023-04-28T01:38:58;11.82;;;6.55;;
72413;SDS011;60995;52.154;4.498;2023-04-28T01:41:14;11.52;;;6.57;;
72413;SDS011;60995;52.154;4.498;2023-04-28T01:43:31;11.63;;;6.07;;
72413;SDS011;60995;52.154;4.498;2023-04-28T01:45:47;15.57;;;6.28;;
72413;SDS011;60995;52.154;4.498;2023-04-28T01:48:03;11.13;;;6.18;;
72413;SDS011;60995;52.154;4.498;2023-04-28T01:50:20;11.63;;;6.85;;
72413;SDS011;60995;52.154;4.498;2023-04-28T01:52:36;12.45;;;6.43;;
72413;SDS011;60995;52.154;4.498;2023-04-28T01:54:53;11.18;;;6.20;;
72413;SDS011;60995;52.154;4.498;2023-04-28T01:57:09;14.15;;;6.75;;
72413;SDS011;60995;52.154;4.498;2023-04-28T01:59:26;11.40;;;5.70;;
72413;SDS011;60995;52.154;4.498;2023-04-28T02:01:42;13.43;;;6.88;;
72413;SDS011;60995;52.154;4.498;2023-04-28T02:03:58;10.73;;;5.07;;
72413;SDS011;60995;52.154;4.498;2023-04-28T02:06:17;12.05;;;6.22;;
72413;SDS011;60995;52.154;4.498;2023-04-28T02:08:34;12.88;;;6.20;;
72413;SDS011;60995;52.154;4.498;2023-04-28T02:10:50;14.00;;;6.68;;
72413;SDS011;60995;52.154;4.498;2023-04-28T02:13:06;11.70;;;5.70;;
72413;SDS011;60995;52.154;4.498;2023-04-28T02:15:23;15.43;;;6.60;;
72413;SDS011;60995;52.154;4.498;2023-04-28T02:17:39;9.98;;;4.95;;
72413;SDS011;60995;52.154;4.498;2023-04-28T02:19:55;13.00;;;6.53;;
72413;SDS011;60995;52.154;4.498;2023-04-28T02:22:12;12.68;;;6.22;;
72413;SDS011;60995;52.154;4.498;2023-04-28T02:24:28;12.60;;;6.57;;
72413;SDS011;60995;52.154;4.498;2023-04-28T02:26:44;10.35;;;6.15;;
72413;SDS011;60995;52.154;4.498;2023-04-28T02:29:00;9.90;;;5.88;;
72413;SDS011;60995;52.154;4.498;2023-04-28T02:31:19;11.77;;;6.10;;
72413;SDS011;60995;52.154;4.498;2023-04-28T02:33:36;16.90;;;6.30;;
72413;SDS011;60995;52.154;4.498;2023-04-28T02:35:59;11.10;;;5.95;;
72413;SDS011;60995;52.154;4.498;2023-04-28T02:38:17;12.93;;;6.03;;
72413;SDS011;60995;52.154;4.498;2023-04-28T02:40:33;13.00;;;6.72;;
72413;SDS011;60995;52.154;4.498;2023-04-28T02:42:50;10.23;;;5.55;;
72413;SDS011;60995;52.154;4.498;2023-04-28T02:45:06;13.25;;;5.93;;
72413;SDS011;60995;52.154;4.498;2023-04-28T02:47:23;11.18;;;5.95;;
72413;SDS011;60995;52.154;4.498;2023-04-28T02:49:39;13.57;;;6.18;;
72413;SDS011;60995;52.154;4.498;2023-04-28T02:51:55;10.07;;;5.90;;
72413;SDS011;60995;52.154;4.498;2023-04-28T02:54:11;12.45;;;5.72;;
72413;SDS011;60995;52.154;4.498;2023-04-28T02:56:28;12.65;;;6.07;;
72413;SDS011;60995;52.154;4.498;2023-04-28T02:58:47;8.65;;;4.75;;
72413;SDS011;60995;52.154;4.498;2023-04-28T03:01:04;10.55;;;6.07;;
72413;SDS011;60995;52.154;4.498;2023-04-28T03:03:20;11.18;;;6.00;;
72413;SDS011;60995;52.154;4.498;2023-04-28T03:05:36;11.60;;;6.07;;
72413;SDS011;60995;52.154;4.498;2023-04-28T03:07:52;10.95;;;5.53;;
72413;SDS011;60995;52.154;4.498;2023-04-28T03:10:09;13.68;;;5.70;;
72413;SDS011;60995;52.154;4.498;2023-04-28T03:12:25;12.80;;;5.85;;
72413;SDS011;60995;52.154;4.498;2023-04-28T03:14:41;12.07;;;6.25;;
72413;SDS011;60995;52.154;4.498;2023-04-28T03:16:57;13.82;;;6.05;;
72413;SDS011;60995;52.154;4.498;2023-04-28T03:19:13;11.63;;;5.95;;
72413;SDS011;60995;52.154;4.498;2023-04-28T03:21:30;11.65;;;5.70;;
72413;SDS011;60995;52.154;4.498;2023-04-28T03:23:47;13.13;;;6.15;;
72413;SDS011;60995;52.154;4.498;2023-04-28T03:26:03;10.60;;;5.65;;
72413;SDS011;60995;52.154;4.498;2023-04-28T03:28:19;10.60;;;5.00;;
72413;SDS011;60995;52.154;4.498;2023-04-28T03:30:35;11.75;;;5.60;;
72413;SDS011;60995;52.154;4.498;2023-04-28T03:32:52;14.93;;;5.70;;
72413;SDS011;60995;52.154;4.498;2023-04-28T03:35:08;11.05;;;5.60;;
72413;SDS011;60995;52.154;4.498;2023-04-28T03:37:24;10.23;;;5.80;;
72413;SDS011;60995;52.154;4.498;2023-04-28T03:39:41;10.07;;;5.80;;
72413;SDS011;60995;52.154;4.498;2023-04-28T03:41:57;12.93;;;6.00;;
72413;SDS011;60995;52.154;4.498;2023-04-28T03:44:13;11.82;;;5.93;;
72413;SDS011;60995;52.154;4.498;2023-04-28T03:46:29;12.50;;;5.97;;
72413;SDS011;60995;52.154;4.498;2023-04-28T03:48:46;9.55;;;5.20;;
72413;SDS011;60995;52.154;4.498;2023-04-28T03:51:02;9.45;;;5.55;;
72413;SDS011;60995;52.154;4.498;2023-04-28T03:53:18;10.23;;;5.18;;
72413;SDS011;60995;52.154;4.498;2023-04-28T03:55:34;12.52;;;4.90;;
72413;SDS011;60995;52.154;4.498;2023-04-28T03:57:51;12.00;;;5.43;;
72413;SDS011;60995;52.154;4.498;2023-04-28T04:00:08;12.45;;;5.07;;
72413;SDS011;60995;52.154;4.498;2023-04-28T04:02:25;13.90;;;5.68;;
72413;SDS011;60995;52.154;4.498;2023-04-28T04:04:41;13.27;;;5.90;;
72413;SDS011;60995;52.154;4.498;2023-04-28T04:06:57;12.40;;;5.53;;
72413;SDS011;60995;52.154;4.498;2023-04-28T04:09:14;10.93;;;5.75;;
72413;SDS011;60995;52.154;4.498;2023-04-28T04:11:30;13.90;;;6.07;;
72413;SDS011;60995;52.154;4.498;2023-04-28T04:13:47;13.23;;;6.00;;
72413;SDS011;60995;52.154;4.498;2023-04-28T04:16:03;11.85;;;5.70;;
72413;SDS011;60995;52.154;4.498;2023-04-28T04:18:20;10.35;;;5.75;;
72413;SDS011;60995;52.154;4.498;2023-04-28T04:20:36;12.95;;;6.13;;
72413;SDS011;60995;52.154;4.498;2023-04-28T04:22:53;11.50;;;6.18;;
72413;SDS011;60995;52.154;4.498;2023-04-28T04:25:09;11.43;;;6.20;;
72413;SDS011;60995;52.154;4.498;2023-04-28T04:27:25;11.38;;;6.10;;
72413;SDS011;60995;52.154;4.498;2023-04-28T04:29:42;14.27;;;5.85;;
72413;SDS011;60995;52.154;4.498;2023-04-28T04:31:58;10.35;;;5.82;;
72413;SDS011;60995;52.154;4.498;2023-04-28T04:34:14;13.15;;;6.13;;
72413;SDS011;60995;52.154;4.498;2023-04-28T04:36:30;15.02;;;6.55;;
72413;SDS011;60995;52.154;4.498;2023-04-28T04:38:47;10.73;;;6.22;;
72413;SDS011;60995;52.154;4.498;2023-04-28T04:41:03;14.27;;;6.57;;
72413;SDS011;60995;52.154;4.498;2023-04-28T04:43:20;13.07;;;6.70;;
72413;SDS011;60995;52.154;4.498;2023-04-28T04:45:36;16.67;;;6.20;;
72413;SDS011;60995;52.154;4.498;2023-04-28T04:47:52;15.80;;;6.95;;
72413;SDS011;60995;52.154;4.498;2023-04-28T04:50:09;13.43;;;6.78;;
72413;SDS011;60995;52.154;4.498;2023-04-28T04:52:26;14.10;;;6.50;;
72413;SDS011;60995;52.154;4.498;2023-04-28T04:54:44;15.30;;;7.60;;
72413;SDS011;60995;52.154;4.498;2023-04-28T04:57:01;13.35;;;7.43;;
72413;SDS011;60995;52.154;4.498;2023-04-28T04:59:17;15.75;;;8.60;;
72413;SDS011;60995;52.154;4.498;2023-04-28T05:01:33;17.60;;;9.27;;
72413;SDS011;60995;52.154;4.498;2023-04-28T05:03:50;16.42;;;8.75;;
72413;SDS011;60995;52.154;4.498;2023-04-28T05:06:06;19.08;;;9.15;;
72413;SDS011;60995;52.154;4.498;2023-04-28T05:08:23;14.48;;;7.72;;
72413;SDS011;60995;52.154;4.498;2023-04-28T05:10:39;16.48;;;9.13;;
72413;SDS011;60995;52.154;4.498;2023-04-28T05:12:55;14.40;;;8.90;;
72413;SDS011;60995;52.154;4.498;2023-04-28T05:15:11;17.77;;;8.20;;
72413;SDS011;60995;52.154;4.498;2023-04-28T05:17:28;17.92;;;9.35;;
72413;SDS011;60995;52.154;4.498;2023-04-28T05:19:44;14.85;;;8.40;;
72413;SDS011;60995;52.154;4.498;2023-04-28T05:22:01;18.85;;;9.55;;
72413;SDS011;60995;52.154;4.498;2023-04-28T05:24:17;15.32;;;8.70;;
72413;SDS011;60995;52.154;4.498;2023-04-28T05:26:36;15.63;;;8.32;;
72413;SDS011;60995;52.154;4.498;2023-04-28T05:28:53;18.38;;;9.02;;
72413;SDS011;60995;52.154;4.498;2023-04-28T05:31:09;18.75;;;8.80;;
72413;SDS011;60995;52.154;4.498;2023-04-28T05:33:25;15.45;;;9.27;;
72413;SDS011;60995;52.154;4.498;2023-04-28T05:35:42;17.40;;;9.38;;
72413;SDS011;60995;52.154;4.498;2023-04-28T05:37:58;16.83;;;9.23;;
72413;SDS011;60995;52.154;4.498;2023-04-28T05:40:14;17.45;;;9.40;;
72413;SDS011;60995;52.154;4.498;2023-04-28T05:42:31;16.00;;;8.73;;
72413;SDS011;60995;52.154;4.498;2023-04-28T05:44:47;17.50;;;9.57;;
72413;SDS011;60995;52.154;4.498;2023-04-28T05:47:03;18.10;;;9.35;;
72413;SDS011;60995;52.154;4.498;2023-04-28T05:49:19;19.08;;;10.00;;
72413;SDS011;60995;52.154;4.498;2023-04-28T05:51:36;23.48;;;10.10;;
72413;SDS011;60995;52.154;4.498;2023-04-28T05:53:53;17.95;;;9.25;;
72413;SDS011;60995;52.154;4.498;2023-04-28T05:56:09;17.38;;;9.77;;
72413;SDS011;60995;52.154;4.498;2023-04-28T05:58:26;17.90;;;9.00;;
72413;SDS011;60995;52.154;4.498;2023-04-28T06:00:42;19.30;;;10.15;;
72413;SDS011;60995;52.154;4.498;2023-04-28T06:02:58;18.48;;;10.48;;
72413;SDS011;60995;52.154;4.498;2023-04-28T06:05:15;19.48;;;10.80;;
72413;SDS011;60995;52.154;4.498;2023-04-28T06:07:31;23.80;;;10.80;;
72413;SDS011;60995;52.154;4.498;2023-04-28T06:09:47;20.50;;;11.48;;
72413;SDS011;60995;52.154;4.498;2023-04-28T06:12:04;18.85;;;11.18;;
72413;SDS011;60995;52.154;4.498;2023-04-28T06:14:21;20.15;;;11.02;;
72413;SDS011;60995;52.154;4.498;2023-04-28T06:16:38;20.67;;;11.45;;
72413;SDS011;60995;52.154;4.498;2023-04-28T06:18:56;19.30;;;11.98;;
72413;SDS011;60995;52.154;4.498;2023-04-28T06:21:13;20.85;;;11.68;;
72413;SDS011;60995;52.154;4.498;2023-04-28T06:23:30;19.98;;;11.70;;
72413;SDS011;60995;52.154;4.498;2023-04-28T06:25:47;21.23;;;12.65;;
72413;SDS011;60995;52.154;4.498;2023-04-28T06:28:03;20.70;;;12.20;;
72413;SDS011;60995;52.154;4.498;2023-04-28T06:30:21;20.50;;;12.65;;
72413;SDS011;60995;52.154;4.498;2023-04-28T06:32:38;22.63;;;13.45;;
72413;SDS011;60995;52.154;4.498;2023-04-28T06:34:55;19.50;;;11.88;;
72413;SDS011;60995;52.154;4.498;2023-04-28T06:37:12;21.73;;;12.85;;
72413;SDS011;60995;52.154;4.498;2023-04-28T06:39:29;25.90;;;11.90;;
72413;SDS011;60995;52.154;4.498;2023-04-28T06:41:45;22.92;;;13.02;;
72413;SDS011;60995;52.154;4.498;2023-04-28T06:44:02;23.17;;;13.68;;
72413;SDS011;60995;52.154;4.498;2023-04-28T06:46:18;23.98;;;14.27;;
72413;SDS011;60995;52.154;4.498;2023-04-28T06:48:34;21.02;;;13.05;;
72413;SDS011;60995;52.154;4.498;2023-04-28T06:50:51;24.15;;;14.32;;
72413;SDS011;60995;52.154;4.498;2023-04-28T06:53:07;27.48;;;14.18;;
72413;SDS011;60995;52.154;4.498;2023-04-28T06:55:23;25.50;;;15.55;;
72413;SDS011;60995;52.154;4.498;2023-04-28T06:57:41;23.13;;;14.30;;
72413;SDS011;60995;52.154;4.498;2023-04-28T06:59:59;25.75;;;13.95;;
72413;SDS011;60995;52.154;4.498;2023-04-28T07:02:15;24.30;;;15.27;;
72413;SDS011;60995;52.154;4.498;2023-04-28T07:04:32;25.75;;;15.30;;
72413;SDS011;60995;52.154;4.498;2023-04-28T07:06:48;29.10;;;15.32;;
72413;SDS011;60995;52.154;4.498;2023-04-28T07:09:04;23.02;;;14.10;;
72413;SDS011;60995;52.154;4.498;2023-04-28T07:11:21;25.77;;;14.48;;
72413;SDS011;60995;52.154;4.498;2023-04-28T07:13:38;28.48;;;17.60;;
72413;SDS011;60995;52.154;4.498;2023-04-28T07:15:54;25.40;;;15.88;;
72413;SDS011;60995;52.154;4.498;2023-04-28T07:18:11;22.83;;;12.27;;
72413;SDS011;60995;52.154;4.498;2023-04-28T07:20:27;24.13;;;15.60;;
72413;SDS011;60995;52.154;4.498;2023-04-28T07:22:43;23.08;;;14.90;;
72413;SDS011;60995;52.154;4.498;2023-04-28T07:25:00;26.02;;;16.20;;
72413;SDS011;60995;52.154;4.498;2023-04-28T07:27:16;28.02;;;15.48;;
72413;SDS011;60995;52.154;4.498;2023-04-28T07:29:32;28.92;;;16.27;;
72413;SDS011;60995;52.154;4.498;2023-04-28T07:31:49;24.23;;;16.58;;
72413;SDS011;60995;52.154;4.498;2023-04-28T07:34:06;33.28;;;17.83;;
72413;SDS011;60995;52.154;4.498;2023-04-28T07:36:22;29.98;;;16.80;;
72413;SDS011;60995;52.154;4.498;2023-04-28T07:38:38;26.45;;;16.85;;
72413;SDS011;60995;52.154;4.498;2023-04-28T07:40:54;30.75;;;17.38;;
72413;SDS011;60995;52.154;4.498;2023-04-28T07:43:11;30.55;;;17.65;;
72413;SDS011;60995;52.154;4.498;2023-04-28T07:45:27;26.88;;;17.25;;
72413;SDS011;60995;52.154;4.498;2023-04-28T07:47:43;31.83;;;18.48;;
72413;SDS011;60995;52.154;4.498;2023-04-28T07:50:00;29.85;;;18.13;;
72413;SDS011;60995;52.154;4.498;2023-04-28T07:52:19;30.10;;;18.55;;
72413;SDS011;60995;52.154;4.498;2023-04-28T07:54:36;29.17;;;18.45;;
72413;SDS011;60995;52.154;4.498;2023-04-28T07:56:52;28.98;;;18.67;;
72413;SDS011;60995;52.154;4.498;2023-04-28T07:59:11;31.83;;;18.83;;
72413;SDS011;60995;52.154;4.498;2023-04-28T08:01:27;32.92;;;19.42;;
72413;SDS011;60995;52.154;4.498;2023-04-28T08:03:44;27.90;;;17.90;;
72413;SDS011;60995;52.154;4.498;2023-04-28T08:06:00;32.72;;;19.20;;
72413;SDS011;60995;52.154;4.498;2023-04-28T08:08:17;32.78;;;19.60;;
72413;SDS011;60995;52.154;4.498;2023-04-28T08:10:33;33.65;;;21.98;;
72413;SDS011;60995;52.154;4.498;2023-04-28T08:12:49;36.75;;;22.65;;
72413;SDS011;60995;52.154;4.498;2023-04-28T08:15:07;33.95;;;21.58;;
72413;SDS011;60995;52.154;4.498;2023-04-28T08:17:24;35.22;;;21.15;;
72413;SDS011;60995;52.154;4.498;2023-04-28T08:19:41;36.53;;;22.45;;
72413;SDS011;60995;52.154;4.498;2023-04-28T08:22:00;37.97;;;22.75;;
72413;SDS011;60995;52.154;4.498;2023-04-28T08:24:20;40.55;;;24.63;;
72413;SDS011;60995;52.154;4.498;2023-04-28T08:26:36;42.67;;;25.38;;
72413;SDS011;60995;52.154;4.498;2023-04-28T08:28:53;43.55;;;25.90;;
72413;SDS011;60995;52.154;4.498;2023-04-28T08:31:09;49.08;;;27.75;;
72413;SDS011;60995;52.154;4.498;2023-04-28T08:33:25;46.80;;;29.33;;
72413;SDS011;60995;52.154;4.498;2023-04-28T08:35:42;48.55;;;28.88;;
72413;SDS011;60995;52.154;4.498;2023-04-28T08:37:58;45.25;;;28.63;;
72413;SDS011;60995;52.154;4.498;2023-04-28T08:40:14;48.30;;;30.05;;
72413;SDS011;60995;52.154;4.498;2023-04-28T08:42:31;48.35;;;28.83;;
72413;SDS011;60995;52.154;4.498;2023-04-28T08:44:48;47.92;;;29.38;;
72413;SDS011;60995;52.154;4.498;2023-04-28T08:47:14;50.22;;;31.70;;
72413;SDS011;60995;52.154;4.498;2023-04-28T08:49:32;46.08;;;29.52;;
72413;SDS011;60995;52.154;4.498;2023-04-28T08:51:55;49.03;;;30.13;;
72413;SDS011;60995;52.154;4.498;2023-04-28T08:54:15;54.53;;;32.37;;
72413;SDS011;60995;52.154;4.498;2023-04-28T08:56:32;48.20;;;30.00;;
72413;SDS011;60995;52.154;4.498;2023-04-28T08:58:52;52.17;;;30.15;;
72413;SDS011;60995;52.154;4.498;2023-04-28T09:01:09;54.13;;;32.65;;
72413;SDS011;60995;52.154;4.498;2023-04-28T09:03:26;50.78;;;31.13;;
72413;SDS011;60995;52.154;4.498;2023-04-28T09:05:42;53.05;;;31.92;;
72413;SDS011;60995;52.154;4.498;2023-04-28T09:08:00;56.50;;;33.05;;
72413;SDS011;60995;52.154;4.498;2023-04-28T09:10:19;55.55;;;33.17;;
72413;SDS011;60995;52.154;4.498;2023-04-28T09:12:38;48.03;;;31.20;;
72413;SDS011;60995;52.154;4.498;2023-04-28T09:14:56;52.30;;;31.85;;
72413;SDS011;60995;52.154;4.498;2023-04-28T09:17:14;54.15;;;32.33;;
72413;SDS011;60995;52.154;4.498;2023-04-28T09:19:35;51.10;;;33.47;;
72413;SDS011;60995;52.154;4.498;2023-04-28T09:21:54;47.58;;;31.70;;
72413;SDS011;60995;52.154;4.498;2023-04-28T09:24:23;50.50;;;32.95;;
72413;SDS011;60995;52.154;4.498;2023-04-28T09:26:49;52.00;;;32.97;;
72413;SDS011;60995;52.154;4.498;2023-04-28T09:29:11;44.13;;;31.02;;
72413;SDS011;60995;52.154;4.498;2023-04-28T09:31:28;50.33;;;33.13;;
72413;SDS011;60995;52.154;4.498;2023-04-28T09:34:06;46.90;;;31.65;;
72413;SDS011;60995;52.154;4.498;2023-04-28T09:36:27;48.15;;;33.88;;
72413;SDS011;60995;52.154;4.498;2023-04-28T09:38:45;48.72;;;32.85;;
72413;SDS011;60995;52.154;4.498;2023-04-28T09:41:01;45.90;;;32.47;;
72413;SDS011;60995;52.154;4.498;2023-04-28T09:43:25;48.22;;;31.85;;
72413;SDS011;60995;52.154;4.498;2023-04-28T09:45:44;52.67;;;35.08;;
72413;SDS011;60995;52.154;4.498;2023-04-28T09:48:07;43.85;;;31.75;;
72413;SDS011;60995;52.154;4.498;2023-04-28T09:50:38;49.03;;;32.55;;
72413;SDS011;60995;52.154;4.498;2023-04-28T09:52:55;45.88;;;32.88;;
72413;SDS011;60995;52.154;4.498;2023-04-28T09:55:12;46.25;;;31.63;;
72413;SDS011;60995;52.154;4.498;2023-04-28T09:57:30;45.13;;;31.90;;
72413;SDS011;60995;52.154;4.498;2023-04-28T09:59:49;42.80;;;30.73;;
72413;SDS011;60995;52.154;4.498;2023-04-28T10:02:08;40.72;;;28.25;;
72413;SDS011;60995;52.154;4.498;2023-04-28T10:04:24;42.20;;;28.10;;
72413;SDS011;60995;52.154;4.498;2023-04-28T10:06:41;44.67;;;29.02;;
72413;SDS011;60995;52.154;4.498;2023-04-28T10:08:59;41.47;;;28.52;;
72413;SDS011;60995;52.154;4.498;2023-04-28T10:11:16;43.67;;;29.38;;
72413;SDS011;60995;52.154;4.498;2023-04-28T10:13:33;41.28;;;27.73;;
72413;SDS011;60995;52.154;4.498;2023-04-28T10:15:51;39.63;;;25.23;;
72413;SDS011;60995;52.154;4.498;2023-04-28T10:18:13;35.63;;;25.27;;
72413;SDS011;60995;52.154;4.498;2023-04-28T10:20:30;34.30;;;23.15;;
72413;SDS011;60995;52.154;4.498;2023-04-28T10:22:54;36.15;;;22.70;;
72413;SDS011;60995;52.154;4.498;2023-04-28T10:25:35;33.22;;;19.10;;
72413;SDS011;60995;52.154;4.498;2023-04-28T10:27:53;29.73;;;15.93;;
72413;SDS011;60995;52.154;4.498;2023-04-28T10:30:10;32.28;;;16.95;;
72413;SDS011;60995;52.154;4.498;2023-04-28T10:32:30;35.35;;;17.25;;
72413;SDS011;60995;52.154;4.498;2023-04-28T10:34:48;34.88;;;17.58;;
72413;SDS011;60995;52.154;4.498;2023-04-28T10:37:04;36.70;;;17.65;;
72413;SDS011;60995;52.154;4.498;2023-04-28T10:39:20;39.30;;;17.63;;
72413;SDS011;60995;52.154;4.498;2023-04-28T10:41:37;41.50;;;18.15;;
72413;SDS011;60995;52.154;4.498;2023-04-28T10:43:53;40.33;;;18.98;;
72413;SDS011;60995;52.154;4.498;2023-04-28T10:46:09;43.50;;;18.08;;
72413;SDS011;60995;52.154;4.498;2023-04-28T10:53:19;40.65;;;16.35;;
72413;SDS011;60995;52.154;4.498;2023-04-28T10:55:35;33.25;;;14.52;;
72413;SDS011;60995;52.154;4.498;2023-04-28T11:00:47;26.40;;;12.10;;
72413;SDS011;60995;52.154;4.498;2023-04-28T11:03:05;26.45;;;13.45;;
72413;SDS011;60995;52.154;4.498;2023-04-28T11:05:21;26.05;;;13.15;;
72413;SDS011;60995;52.154;4.498;2023-04-28T11:07:38;28.00;;;13.15;;
72413;SDS011;60995;52.154;4.498;2023-04-28T11:09:54;26.75;;;13.20;;
72413;SDS011;60995;52.154;4.498;2023-04-28T11:12:10;26.80;;;13.13;;
72413;SDS011;60995;52.154;4.498;2023-04-28T11:19:26;35.28;;;15.10;;
72413;SDS011;60995;52.154;4.498;2023-04-28T11:21:45;32.95;;;13.98;;
72413;SDS011;60995;52.154;4.498;2023-04-28T11:24:09;37.85;;;14.27;;
72413;SDS011;60995;52.154;4.498;2023-04-28T11:26:26;32.65;;;13.82;;
72413;SDS011;60995;52.154;4.498;2023-04-28T11:28:46;34.30;;;14.98;;
72413;SDS011;60995;52.154;4.498;2023-04-28T11:31:15;32.20;;;12.77;;
72413;SDS011;60995;52.154;4.498;2023-04-28T11:33:38;31.77;;;13.32;;
72413;SDS011;60995;52.154;4.498;2023-04-28T11:35:56;37.63;;;12.52;;
72413;SDS011;60995;52.154;4.498;2023-04-28T11:38:12;30.10;;;13.35;;
72413;SDS011;60995;52.154;4.498;2023-04-28T11:40:29;22.98;;;10.82;;
72413;SDS011;60995;52.154;4.498;2023-04-28T11:42:46;22.95;;;10.00;;
72413;SDS011;60995;52.154;4.498;2023-04-28T11:45:03;22.63;;;8.82;;
72413;SDS011;60995;52.154;4.498;2023-04-28T11:47:33;17.90;;;7.80;;
72413;SDS011;60995;52.154;4.498;2023-04-28T11:49:50;16.55;;;6.97;;
72413;SDS011;60995;52.154;4.498;2023-04-28T11:52:07;15.77;;;7.13;;
72413;SDS011;60995;52.154;4.498;2023-04-28T11:54:25;13.18;;;6.22;;
72413;SDS011;60995;52.154;4.498;2023-04-28T11:56:43;9.95;;;4.57;;
72413;SDS011;60995;52.154;4.498;2023-04-28T11:59:03;8.57;;;3.85;;
72413;SDS011;60995;52.154;4.498;2023-04-28T12:03:43;8.32;;;3.35;;
72413;SDS011;60995;52.154;4.498;2023-04-28T12:06:02;8.38;;;2.92;;
72413;SDS011;60995;52.154;4.498;2023-04-28T12:08:27;6.95;;;2.63;;
72413;SDS011;60995;52.154;4.498;2023-04-28T12:11:02;6.78;;;2.30;;
72413;SDS011;60995;52.154;4.498;2023-04-28T12:13:28;5.03;;;2.53;;
72413;SDS011;60995;52.154;4.498;2023-04-28T12:15:44;5.20;;;2.90;;
72413;SDS011;60995;52.154;4.498;2023-04-28T12:18:08;6.28;;;2.80;;
72413;SDS011;60995;52.154;4.498;2023-04-28T12:20:34;5.45;;;3.00;;
72413;SDS011;60995;52.154;4.498;2023-04-28T12:22:53;7.20;;;3.70;;
72413;SDS011;60995;52.154;4.498;2023-04-28T12:25:10;8.45;;;4.20;;
72413;SDS011;60995;52.154;4.498;2023-04-28T12:27:28;8.18;;;4.25;;
72413;SDS011;60995;52.154;4.498;2023-04-28T12:29:46;8.75;;;4.30;;
72413;SDS011;60995;52.154;4.498;2023-04-28T12:32:06;10.80;;;5.05;;
72413;SDS011;60995;52.154;4.498;2023-04-28T12:34:25;10.35;;;5.15;;
72413;SDS011;60995;52.154;4.498;2023-04-28T12:36:43;14.27;;;7.15;;
72413;SDS011;60995;52.154;4.498;2023-04-28T12:39:01;15.65;;;7.15;;
72413;SDS011;60995;52.154;4.498;2023-04-28T12:41:17;14.13;;;7.28;;
72413;SDS011;60995;52.154;4.498;2023-04-28T12:43:33;15.45;;;7.50;;
72413;SDS011;60995;52.154;4.498;2023-04-28T12:45:50;17.52;;;7.88;;
72413;SDS011;60995;52.154;4.498;2023-04-28T12:48:08;15.70;;;8.20;;
72413;SDS011;60995;52.154;4.498;2023-04-28T12:50:24;13.68;;;7.55;;
72413;SDS011;60995;52.154;4.498;2023-04-28T12:52:42;14.73;;;7.35;;
72413;SDS011;60995;52.154;4.498;2023-04-28T12:55:01;16.02;;;7.47;;
72413;SDS011;60995;52.154;4.498;2023-04-28T12:57:19;16.50;;;7.75;;
72413;SDS011;60995;52.154;4.498;2023-04-28T12:59:35;18.02;;;8.02;;
72413;SDS011;60995;52.154;4.498;2023-04-28T13:01:51;19.92;;;9.05;;
72413;SDS011;60995;52.154;4.498;2023-04-28T13:04:07;21.50;;;8.93;;
72413;SDS011;60995;52.154;4.498;2023-04-28T13:06:25;25.05;;;11.55;;
72413;SDS011;60995;52.154;4.498;2023-04-28T13:08:43;26.40;;;11.25;;
72413;SDS011;60995;52.154;4.498;2023-04-28T13:10:59;25.77;;;11.15;;
72413;SDS011;60995;52.154;4.498;2023-04-28T13:13:15;29.05;;;12.10;;
72413;SDS011;60995;52.154;4.498;2023-04-28T13:15:32;25.42;;;12.40;;
72413;SDS011;60995;52.154;4.498;2023-04-28T13:17:48;24.42;;;10.40;;
72413;SDS011;60995;52.154;4.498;2023-04-28T13:20:04;23.42;;;10.50;;
72413;SDS011;60995;52.154;4.498;2023-04-28T13:22:22;21.33;;;10.48;;
72413;SDS011;60995;52.154;4.498;2023-04-28T13:24:38;22.85;;;10.80;;
72413;SDS011;60995;52.154;4.498;2023-04-28T13:26:54;25.17;;;11.05;;
72413;SDS011;60995;52.154;4.498;2023-04-28T13:29:11;20.65;;;10.25;;
72413;SDS011;60995;52.154;4.498;2023-04-28T13:31:29;21.67;;;10.50;;
72413;SDS011;60995;52.154;4.498;2023-04-28T13:33:46;21.95;;;10.32;;
72413;SDS011;60995;52.154;4.498;2023-04-28T13:36:02;23.60;;;9.98;;
72413;SDS011;60995;52.154;4.498;2023-04-28T13:38:18;225.80;;;15.52;;
72413;SDS011;60995;52.154;4.498;2023-04-28T13:40:36;17.20;;;8.13;;
72413;SDS011;60995;52.154;4.498;2023-04-28T13:42:52;18.58;;;9.23;;
72413;SDS011;60995;52.154;4.498;2023-04-28T13:45:09;34.95;;;10.70;;